Time;durP1;ratioP1;P1;durP2;ratioP2;P2;SDS_P1;SDS_P2;PMS_P1;PMS_P2;Temp;Humidity;BMP_temperature;BMP_pressure;BME280_temperature;BME280_humidity;BME280_pressure;Samples;Min_cycle;Max_cycle;Signal;HPM_P1;HPM_P2
2023/03/27 00:00:29;;;;;;;12.80;6.77;;;;;;;14.12;46.54;93634.69;5030887;28;20643;-52
2023/03/27 00:02:56;;;;;;;10.37;7.07;;;;;;;14.15;46.45;93634.31;5031339;28;20204;-53
2023/03/27 00:05:23;;;;;;;11.60;6.80;;;;;;;14.14;46.56;93633.53;5031832;28;20231;-52
2023/03/27 00:07:52;;;;;;;12.20;6.70;;;;;;;14.13;46.46;93636.28;5023927;28;20216;-52
2023/03/27 00:10:19;;;;;;;7.77;5.83;;;;;;;14.12;46.42;93635.50;5013112;28;20297;-52
2023/03/27 00:12:47;;;;;;;9.77;6.23;;;;;;;14.13;46.63;93623.44;5011419;28;20200;-50
2023/03/27 00:15:16;;;;;;;8.93;5.97;;;;;;;14.11;46.60;93618.47;5011616;28;20636;-50
2023/03/27 00:17:45;;;;;;;9.73;5.97;;;;;;;14.07;46.66;93627.53;5010995;28;20295;-55
2023/03/27 00:20:13;;;;;;;7.43;5.67;;;;;;;14.09;46.49;93637.66;5011779;28;20203;-53
2023/03/27 00:22:39;;;;;;;10.90;6.73;;;;;;;14.08;46.59;93615.50;5010538;28;20200;-52
2023/03/27 00:25:07;;;;;;;8.20;6.37;;;;;;;14.05;46.56;93609.72;5011639;28;20207;-54
2023/03/27 00:27:34;;;;;;;10.90;6.03;;;;;;;14.02;46.55;93630.66;5027461;28;20740;-51
2023/03/27 00:30:05;;;;;;;9.40;6.17;;;;;;;14.02;46.79;93617.00;5030755;28;20279;-53
2023/03/27 00:32:33;;;;;;;8.70;6.30;;;;;;;13.99;46.71;93600.19;5031091;28;20620;-53
2023/03/27 00:34:59;;;;;;;7.40;5.97;;;;;;;13.94;46.85;93609.44;5031254;28;20617;-51
2023/03/27 00:37:26;;;;;;;10.83;6.27;;;;;;;13.98;46.64;93615.78;5031140;28;20605;-52
2023/03/27 00:39:54;;;;;;;7.93;5.43;;;;;;;13.97;46.74;93619.34;5031129;28;20250;-55
2023/03/27 00:42:22;;;;;;;9.87;6.50;;;;;;;13.96;46.81;93610.84;5028898;28;20222;-51
2023/03/27 00:44:50;;;;;;;8.67;5.80;;;;;;;13.97;46.70;93601.34;5028913;28;20564;-51
2023/03/27 00:47:32;;;;;;;7.63;5.57;;;;;;;13.92;46.69;93589.06;5030087;28;20195;-54
2023/03/27 00:50:02;;;;;;;7.43;5.07;;;;;;;13.96;46.81;93592.84;5016169;28;20203;-51
2023/03/27 00:52:30;;;;;;;8.93;6.13;;;;;;;13.96;46.74;93595.41;5010843;28;20232;-51
2023/03/27 00:55:00;;;;;;;8.97;6.13;;;;;;;13.93;46.89;93580.34;5010798;28;20590;-52
2023/03/27 00:57:27;;;;;;;10.03;6.00;;;;;;;13.94;46.78;93571.66;5010730;28;20234;-52
2023/03/27 00:59:57;;;;;;;6.40;5.47;;;;;;;13.91;46.78;93572.06;5029958;28;20203;-51
2023/03/27 01:02:26;;;;;;;8.77;5.47;;;;;;;13.92;46.77;93573.63;5030929;28;20191;-51
2023/03/27 01:04:54;;;;;;;8.77;5.83;;;;;;;13.90;46.79;93569.66;5030119;28;20206;-52
2023/03/27 01:07:23;;;;;;;9.03;5.80;;;;;;;13.84;46.92;93570.41;5025177;28;20195;-53
2023/03/27 01:09:51;;;;;;;8.57;5.87;;;;;;;13.89;46.77;93568.88;5010298;28;20236;-52
2023/03/27 01:12:29;;;;;;;9.00;6.70;;;;;;;13.89;47.01;93568.06;5010384;28;20299;-52
2023/03/27 01:15:15;;;;;;;8.73;5.90;;;;;;;13.89;46.85;93552.66;5010414;28;20196;-53
2023/03/27 01:17:57;;;;;;;9.60;5.73;;;;;;;13.88;46.96;93556.22;5010638;28;20219;-51
2023/03/27 01:21:08;;;;;;;10.50;6.03;;;;;;;13.84;47.08;93535.22;5010754;28;20246;-51
2023/03/27 01:23:53;;;;;;;8.63;5.50;;;;;;;13.84;47.23;93542.94;4949440;29;20198;-50
2023/03/27 01:26:56;;;;;;;10.23;6.80;;;;;;;13.81;46.82;93538.16;4949501;29;20670;-52
2023/03/27 01:29:30;;;;;;;10.23;6.87;;;;;;;13.81;47.21;93533.00;4949564;29;20225;-52
2023/03/27 01:32:20;;;;;;;9.83;6.57;;;;;;;13.84;47.03;93540.38;4949474;29;20234;-52
2023/03/27 01:35:06;;;;;;;8.80;6.47;;;;;;;13.81;47.02;93551.78;4949213;28;20249;-54
2023/03/27 01:38:02;;;;;;;10.33;6.07;;;;;;;13.84;47.19;93542.13;4949489;29;20202;-52
2023/03/27 01:40:35;;;;;;;8.50;6.07;;;;;;;13.81;47.08;93540.72;4949186;29;20195;-50
2023/03/27 01:43:07;;;;;;;13.43;6.67;;;;;;;13.84;47.15;93537.00;4949480;29;20210;-52
2023/03/27 01:45:42;;;;;;;10.60;7.07;;;;;;;13.73;46.95;93510.03;4949315;29;20313;-51
2023/03/27 01:48:15;;;;;;;9.40;6.90;;;;;;;13.83;47.27;93520.00;4948974;29;20232;-52
2023/03/27 01:50:46;;;;;;;10.30;7.20;;;;;;;13.83;47.12;93509.72;4949664;29;20218;-53
2023/03/27 01:53:18;;;;;;;11.83;7.47;;;;;;;13.83;47.18;93514.88;4948954;29;20226;-52
2023/03/27 01:55:52;;;;;;;9.73;7.03;;;;;;;13.77;47.22;93506.91;4948818;29;20630;-52
2023/03/27 01:58:27;;;;;;;11.53;6.57;;;;;;;13.74;47.24;93515.00;4948899;29;20282;-52
2023/03/27 02:00:56;;;;;;;10.23;7.43;;;;;;;13.80;47.26;93511.66;5012563;28;20191;-52
2023/03/27 02:03:27;;;;;;;11.97;7.47;;;;;;;13.78;47.25;93521.34;5028868;28;20744;-53
2023/03/27 02:05:58;;;;;;;9.57;6.10;;;;;;;13.61;47.25;93489.19;5027899;28;20588;-50
2023/03/27 02:08:31;;;;;;;10.63;6.57;;;;;;;13.71;47.21;93481.97;5028914;28;20563;-52
2023/03/27 02:11:00;;;;;;;12.13;6.70;;;;;;;13.75;47.35;93521.72;5028830;28;20184;-52
2023/03/27 02:13:31;;;;;;;11.10;7.00;;;;;;;13.72;47.32;93477.59;5029100;28;20203;-52
2023/03/27 02:15:59;;;;;;;10.17;6.70;;;;;;;13.72;47.46;93505.88;5029411;28;20199;-53
2023/03/27 02:18:35;;;;;;;12.33;7.20;;;;;;;13.70;47.19;93474.44;5029162;28;20207;-51
2023/03/27 02:21:02;;;;;;;13.93;6.90;;;;;;;13.69;47.09;93508.84;5021247;28;20196;-51
2023/03/27 02:23:30;;;;;;;9.43;7.20;;;;;;;13.51;47.29;93468.97;5017191;28;20195;-54
2023/03/27 02:26:00;;;;;;;9.77;6.93;;;;;;;13.64;47.24;93478.53;5029471;28;20179;-51
2023/03/27 02:29:13;;;;;;;11.57;7.17;;;;;;;13.64;47.33;93488.03;5029019;28;20233;-52
2023/03/27 02:31:52;;;;;;;9.70;6.60;;;;;;;13.58;47.07;93455.38;4929391;29;20299;-54
2023/03/27 02:34:37;;;;;;;10.17;6.77;;;;;;;13.59;47.29;93477.50;4929778;29;20697;-51
2023/03/27 02:37:16;;;;;;;10.20;6.60;;;;;;;13.56;47.48;93453.00;4929204;29;20203;-53
2023/03/27 02:39:54;;;;;;;14.07;6.40;;;;;;;13.54;47.41;93449.81;4929235;29;20230;-52
2023/03/27 02:42:27;;;;;;;15.50;6.77;;;;;;;13.47;47.29;93434.38;4929575;29;20569;-52
2023/03/27 02:45:02;;;;;;;12.10;7.20;;;;;;;13.50;47.19;93438.31;4929395;29;20198;-51
2023/03/27 02:47:36;;;;;;;10.73;6.80;;;;;;;13.46;47.42;93424.28;4933498;29;20618;-52
2023/03/27 02:50:09;;;;;;;11.87;6.67;;;;;;;13.41;47.55;93412.00;4933246;29;20230;-53
2023/03/27 02:52:40;;;;;;;11.33;6.47;;;;;;;13.43;47.37;93396.41;4933027;29;20233;-51
2023/03/27 02:55:13;;;;;;;10.00;6.13;;;;;;;13.42;47.35;93407.66;4932914;29;20250;-50
2023/03/27 02:57:45;;;;;;;7.57;4.93;;;;;;;13.39;47.47;93413.19;4933018;29;20202;-51
2023/03/27 03:00:24;;;;;;;9.20;6.20;;;;;;;13.36;47.68;93400.69;4933136;29;20226;-51
2023/03/27 03:02:54;;;;;;;9.40;6.13;;;;;;;13.34;47.53;93398.28;4933144;29;20294;-52
2023/03/27 03:05:23;;;;;;;8.40;5.93;;;;;;;13.32;47.53;93407.19;4933001;29;20199;-52
2023/03/27 03:07:53;;;;;;;8.47;5.73;;;;;;;13.30;47.58;93403.03;4980692;28;20193;-54
2023/03/27 03:10:20;;;;;;;9.97;6.10;;;;;;;13.28;47.66;93381.09;4992379;28;20231;-51
2023/03/27 03:12:48;;;;;;;7.50;5.43;;;;;;;13.26;47.83;93378.72;4993449;28;20244;-51
2023/03/27 03:15:15;;;;;;;9.70;5.97;;;;;;;13.20;47.72;93386.31;4992536;28;20185;-51
2023/03/27 03:17:42;;;;;;;9.27;6.27;;;;;;;13.21;47.70;93365.63;4993199;28;20644;-52
2023/03/27 03:20:11;;;;;;;10.37;6.13;;;;;;;13.15;47.68;93363.78;4990017;28;20197;-53
2023/03/27 03:22:38;;;;;;;10.73;6.03;;;;;;;13.19;48.00;93366.78;4973433;28;20194;-51
2023/03/27 03:25:06;;;;;;;8.60;5.87;;;;;;;13.18;47.73;93375.47;4973242;28;20190;-51
2023/03/27 03:27:33;;;;;;;9.57;6.57;;;;;;;13.15;48.04;93356.06;4973643;28;20253;-51
2023/03/27 03:30:03;;;;;;;9.80;6.30;;;;;;;13.17;47.92;93371.28;4973804;28;20308;-52
2023/03/27 03:32:30;;;;;;;8.17;5.97;;;;;;;13.15;47.79;93384.31;4973646;28;20630;-51
2023/03/27 03:34:57;;;;;;;8.03;5.70;;;;;;;13.17;47.96;93358.44;4973408;28;20785;-51
2023/03/27 03:37:27;;;;;;;7.63;5.23;;;;;;;13.17;48.06;93335.34;4974079;28;20202;-52
2023/03/27 03:39:54;;;;;;;10.97;6.27;;;;;;;13.17;47.95;93359.25;4973545;28;20197;-57
2023/03/27 03:42:21;;;;;;;8.93;5.93;;;;;;;13.18;47.98;93362.63;4973112;28;20198;-53
2023/03/27 03:44:47;;;;;;;9.33;6.47;;;;;;;13.18;48.07;93362.63;4973477;28;20190;-53
2023/03/27 03:47:16;;;;;;;8.40;6.00;;;;;;;13.18;47.91;93342.09;4973063;28;20182;-50
2023/03/27 03:49:43;;;;;;;14.40;6.70;;;;;;;13.14;47.97;93361.41;4973149;28;20222;-50
2023/03/27 03:52:10;;;;;;;9.03;6.40;;;;;;;13.11;47.92;93352.28;4976881;28;20197;-53
2023/03/27 03:54:39;;;;;;;9.80;5.93;;;;;;;13.19;48.02;93348.81;5012344;28;20188;-52
2023/03/27 03:57:06;;;;;;;9.17;5.67;;;;;;;13.18;48.07;93368.53;5011771;28;20184;-51
2023/03/27 03:59:33;;;;;;;9.47;5.60;;;;;;;13.18;47.97;93360.06;5012209;28;20227;-52
2023/03/27 04:02:00;;;;;;;11.00;6.23;;;;;;;13.13;47.77;93350.34;5011950;28;20199;-51
2023/03/27 04:04:29;;;;;;;8.43;5.80;;;;;;;13.16;48.05;93357.66;5011622;28;20196;-52
2023/03/27 04:06:57;;;;;;;10.07;5.70;;;;;;;13.16;48.14;93364.56;5011984;28;20203;-51
2023/03/27 04:09:24;;;;;;;7.97;5.67;;;;;;;13.13;47.79;93341.84;5012138;28;20212;-52
2023/03/27 04:11:50;;;;;;;7.23;5.30;;;;;;;13.15;48.23;93347.59;5012202;28;20255;-53
2023/03/27 04:14:17;;;;;;;11.40;6.83;;;;;;;13.05;47.90;93350.47;5011523;28;20192;-52
2023/03/27 04:16:44;;;;;;;9.87;6.63;;;;;;;13.14;48.18;93354.50;5011789;28;20263;-52
2023/03/27 04:19:11;;;;;;;11.83;5.80;;;;;;;13.15;47.99;93362.97;5011435;28;20583;-51
2023/03/27 04:21:41;;;;;;;8.27;5.83;;;;;;;13.16;48.17;93351.72;5021131;28;20195;-51
2023/03/27 04:24:08;;;;;;;7.87;5.43;;;;;;;13.18;48.11;93365.19;5025596;28;20192;-51
2023/03/27 04:26:34;;;;;;;7.70;5.47;;;;;;;13.19;48.10;93354.72;5011529;28;20189;-51
2023/03/27 04:29:01;;;;;;;7.70;5.73;;;;;;;13.22;48.03;93335.59;5011150;28;20223;-52
2023/03/27 04:31:29;;;;;;;10.57;5.50;;;;;;;13.23;48.06;93361.09;5012637;28;20247;-53
2023/03/27 04:33:55;;;;;;;7.33;5.57;;;;;;;13.26;48.04;93327.38;5017295;28;20639;-51
2023/03/27 04:36:23;;;;;;;8.87;4.50;;;;;;;13.57;77.24;93336.44;5030588;28;20238;-53
2023/03/27 04:38:52;;;;;;;9.93;3.90;;;;;;;14.34;80.10;93342.31;5030296;28;20196;-53
2023/03/27 04:41:20;;;;;;;6.23;3.80;;;;;;;15.03;76.77;93329.97;5031360;28;20258;-54
2023/03/27 04:43:46;;;;;;;4.87;4.00;;;;;;;15.70;73.93;93322.16;5030672;28;20222;-55
2023/03/27 04:46:13;;;;;;;5.20;4.07;;;;;;;16.28;71.30;93314.41;5030979;28;20290;-55
2023/03/27 04:48:41;;;;;;;7.53;3.50;;;;;;;16.81;68.76;93327.03;5019140;28;20188;-56
2023/03/27 04:51:08;;;;;;;10.43;3.70;;;;;;;17.30;66.80;93344.31;5011005;28;20246;-56
2023/03/27 04:53:36;;;;;;;12.17;3.60;;;;;;;17.74;65.04;93310.72;5010740;28;20224;-54
2023/03/27 04:56:05;;;;;;;22.10;4.03;;;;;;;18.12;63.06;93317.47;5010892;28;20193;-56
2023/03/27 04:58:33;;;;;;;11.93;4.23;;;;;;;18.45;61.43;93298.94;5011126;28;20192;-56
2023/03/27 05:01:01;;;;;;;7.83;4.43;;;;;;;18.74;60.19;93316.28;5010794;28;20227;-56
2023/03/27 05:03:27;;;;;;;6.33;3.93;;;;;;;19.01;58.87;93306.31;5023930;28;20682;-55
2023/03/27 05:05:54;;;;;;;10.30;4.27;;;;;;;19.35;58.57;93313.56;5029975;28;20206;-62
2023/03/27 05:08:21;;;;;;;10.93;4.03;;;;;;;19.64;57.83;93278.16;5029301;28;20188;-56
2023/03/27 05:10:48;;;;;;;11.43;3.77;;;;;;;20.16;57.35;93302.28;5030250;28;20598;-52
2023/03/27 05:13:16;;;;;;;11.97;4.57;;;;;;;20.64;56.80;93288.16;5030938;28;20188;-52
2023/03/27 05:15:43;;;;;;;8.57;4.70;;;;;;;20.97;56.35;93278.78;5030592;28;20254;-53
2023/03/27 05:18:11;;;;;;;15.20;4.27;;;;;;;21.34;55.39;93299.94;5030539;28;20195;-55
2023/03/27 05:20:38;;;;;;;7.20;4.50;;;;;;;21.55;54.18;93277.59;5030443;28;20187;-56
2023/03/27 05:23:05;;;;;;;5.60;3.72;;;;;;;21.68;52.68;93272.03;5030415;28;20555;-54
2023/03/27 05:25:32;;;;;;;9.85;5.50;;;;;;;21.78;51.93;93253.94;5030217;28;20269;-54
2023/03/27 05:28:00;;;;;;;8.52;4.35;;;;;;;21.88;51.02;93260.31;5030520;28;20571;-53
2023/03/27 05:30:28;;;;;;;9.93;4.80;;;;;;;21.88;50.90;93244.69;5030418;28;20223;-54
2023/03/27 05:32:57;;;;;;;6.05;4.50;;;;;;;21.88;50.55;93229.84;5030250;28;20711;-53
2023/03/27 05:35:27;;;;;;;7.60;4.63;;;;;;;21.83;50.13;93213.41;5030183;28;20206;-52
2023/03/27 05:37:55;;;;;;;10.68;5.03;;;;;;;21.82;49.54;93214.44;5029840;28;20198;-53
2023/03/27 05:40:24;;;;;;;7.90;4.30;;;;;;;21.79;49.01;93198.25;5030023;28;20559;-52
2023/03/27 05:42:52;;;;;;;16.27;5.10;;;;;;;21.76;48.61;93177.13;5030228;28;20270;-54
2023/03/27 05:45:20;;;;;;;7.43;4.22;;;;;;;21.69;48.58;93159.13;5029883;28;20227;-53
2023/03/27 05:47:50;;;;;;;7.40;4.65;;;;;;;21.47;48.14;93121.94;5030160;28;20199;-53
2023/03/27 05:50:18;;;;;;;10.27;4.82;;;;;;;21.77;47.74;93145.69;5030076;28;20269;-56
2023/03/27 05:52:45;;;;;;;6.43;4.30;;;;;;;21.94;47.48;93130.00;5029690;28;20232;-60
2023/03/27 05:55:13;;;;;;;5.93;4.80;;;;;;;22.03;47.59;93131.09;5029958;28;20659;-55
2023/03/27 05:57:41;;;;;;;7.35;4.75;;;;;;;22.06;47.37;93127.22;5030093;28;20191;-56
2023/03/27 06:00:12;;;;;;;8.52;4.85;;;;;;;22.03;46.84;93112.88;5030128;28;20191;-53
2023/03/27 06:02:41;;;;;;;9.23;4.55;;;;;;;22.04;46.56;93079.81;5029337;28;20188;-52
2023/03/27 06:05:13;;;;;;;10.95;4.70;;;;;;;21.97;46.46;93077.41;5029491;28;20215;-58
2023/03/27 06:07:41;;;;;;;7.22;5.05;;;;;;;21.87;46.05;93069.53;5029412;28;20187;-56
2023/03/27 06:10:09;;;;;;;9.23;4.22;;;;;;;21.78;45.62;93060.59;5029481;28;20213;-55
2023/03/27 06:12:38;;;;;;;7.43;4.75;;;;;;;21.71;45.29;93067.81;5029564;28;20190;-56
2023/03/27 06:15:06;;;;;;;7.10;4.18;;;;;;;21.67;45.34;93046.69;5029842;28;20191;-53
2023/03/27 06:17:33;;;;;;;5.88;4.03;;;;;;;21.82;45.39;93077.28;5029500;28;20203;-53
2023/03/27 06:20:00;;;;;;;5.47;4.20;;;;;;;21.85;44.91;93055.19;5028886;28;20667;-54
2023/03/27 06:22:29;;;;;;;6.90;4.60;;;;;;;22.13;44.91;93088.00;5029325;28;20195;-53
2023/03/27 06:24:56;;;;;;;9.82;4.38;;;;;;;22.17;45.18;93073.44;5029414;28;20208;-55
2023/03/27 06:27:23;;;;;;;8.98;4.72;;;;;;;21.77;44.92;93001.78;5029311;28;20330;-51
2023/03/27 06:29:49;;;;;;;6.60;4.45;;;;;;;22.06;44.89;93046.50;5029167;28;20219;-53
2023/03/27 06:32:16;;;;;;;9.55;4.82;;;;;;;21.97;44.68;93045.41;5029582;28;20626;-54
2023/03/27 06:34:44;;;;;;;11.05;5.07;;;;;;;21.83;44.75;93078.06;5029111;28;20747;-52
2023/03/27 06:37:11;;;;;;;7.53;5.25;;;;;;;21.69;44.42;93086.28;5029682;28;20187;-56
2023/03/27 06:39:39;;;;;;;11.23;5.40;;;;;;;21.61;44.28;93089.31;5029080;28;20191;-53
2023/03/27 06:42:05;;;;;;;7.20;4.97;;;;;;;21.44;44.15;93097.19;5029224;28;20187;-53
2023/03/27 06:44:32;;;;;;;10.98;5.68;;;;;;;21.50;44.09;93105.84;5029064;28;20195;-51
2023/03/27 06:46:59;;;;;;;8.45;5.90;;;;;;;21.54;43.84;93104.31;5029162;28;20196;-52
2023/03/27 06:49:26;;;;;;;11.07;5.95;;;;;;;21.60;43.76;93112.97;5028901;28;20306;-52
2023/03/27 06:51:53;;;;;;;8.00;5.20;;;;;;;21.72;44.10;93118.84;5029263;28;20718;-54
2023/03/27 06:54:19;;;;;;;11.90;6.05;;;;;;;21.80;43.91;93110.56;5029025;28;20686;-53
2023/03/27 06:56:48;;;;;;;11.07;5.78;;;;;;;21.89;43.91;93108.31;5029178;28;20194;-52
2023/03/27 06:59:15;;;;;;;12.43;6.13;;;;;;;22.00;43.94;93128.22;5029039;28;20191;-56
2023/03/27 07:01:42;;;;;;;11.27;6.43;;;;;;;22.21;43.42;93093.53;5029712;28;20281;-60
2023/03/27 07:04:09;;;;;;;8.50;6.13;;;;;;;22.70;43.76;93111.59;5029273;28;20200;-58
2023/03/27 07:06:36;;;;;;;13.13;6.05;;;;;;;23.09;44.12;93098.28;5029210;28;20254;-56
2023/03/27 07:09:03;;;;;;;11.95;6.18;;;;;;;23.53;43.93;93117.00;5029046;28;20194;-57
2023/03/27 07:11:30;;;;;;;7.38;5.38;;;;;;;24.07;44.44;93092.31;5028985;28;20215;-52
2023/03/27 07:13:58;;;;;;;8.52;5.88;;;;;;;24.82;44.69;93097.78;5029376;28;20242;-52
2023/03/27 07:16:25;;;;;;;5.70;4.68;;;;;;;25.53;44.88;93089.75;5028768;28;20188;-55
2023/03/27 07:18:52;;;;;;;6.97;5.45;;;;;;;26.60;44.30;93100.59;5029132;28;20209;-55
2023/03/27 07:21:19;;;;;;;7.57;5.55;;;;;;;27.59;43.90;93081.72;5028972;28;20192;-53
2023/03/27 07:23:46;;;;;;;11.30;5.72;;;;;;;28.49;43.18;93086.75;5028770;28;20252;-52
2023/03/27 07:26:13;;;;;;;7.80;5.70;;;;;;;29.06;42.14;93093.69;5028909;28;20198;-54
2023/03/27 07:28:41;;;;;;;6.88;5.32;;;;;;;29.30;41.39;93094.31;5028828;28;20199;-56
2023/03/27 07:31:12;;;;;;;8.35;5.13;;;;;;;29.34;41.16;93105.81;5029455;28;20231;-54
2023/03/27 07:33:39;;;;;;;12.20;5.03;;;;;;;29.24;40.72;93098.91;5032702;28;20282;-55
2023/03/27 07:36:07;;;;;;;10.63;4.90;;;;;;;29.11;41.13;93112.06;5032284;28;20196;-55
2023/03/27 07:38:33;;;;;;;7.30;4.63;;;;;;;28.89;40.73;93089.78;5032582;28;20188;-55
2023/03/27 07:41:05;;;;;;;7.53;4.60;;;;;;;28.81;40.84;93094.94;5032742;28;20195;-58
2023/03/27 07:43:32;;;;;;;8.90;5.05;;;;;;;28.70;40.86;93094.31;5032491;28;20559;-54
2023/03/27 07:45:59;;;;;;;5.53;4.28;;;;;;;28.53;40.56;93083.56;5032462;28;20192;-54
2023/03/27 07:48:29;;;;;;;5.97;4.38;;;;;;;28.31;40.15;93076.25;5032072;28;20559;-52
2023/03/27 07:50:59;;;;;;;4.28;3.70;;;;;;;28.13;39.96;93106.75;5032085;28;20296;-56
2023/03/27 07:53:26;;;;;;;6.22;4.10;;;;;;;27.94;40.30;93101.53;5031262;28;20595;-58
2023/03/27 07:55:53;;;;;;;5.60;4.57;;;;;;;27.75;39.82;93101.50;5031901;28;20188;-55
2023/03/27 07:58:21;;;;;;;6.35;4.40;;;;;;;27.52;40.01;93106.50;5031526;28;20677;-53
2023/03/27 08:00:50;;;;;;;9.27;4.13;;;;;;;27.30;39.57;93087.84;5032166;28;20196;-55
2023/03/27 08:03:17;;;;;;;5.95;3.60;;;;;;;27.10;39.61;93072.34;5031610;28;20192;-56
2023/03/27 08:05:53;;;;;;;5.97;3.80;;;;;;;26.88;39.14;93068.34;5031897;28;20208;-57
2023/03/27 08:08:19;;;;;;;4.75;3.72;;;;;;;26.69;39.27;93083.22;5031281;28;20184;-53
2023/03/27 08:10:47;;;;;;;4.65;3.92;;;;;;;26.52;39.53;93073.94;5031575;28;20289;-60
2023/03/27 08:13:14;;;;;;;4.32;3.90;;;;;;;26.40;39.15;93064.84;5031572;28;20227;-56
2023/03/27 08:15:40;;;;;;;4.40;3.47;;;;;;;26.27;38.93;93068.88;5031471;28;20184;-58
2023/03/27 08:18:07;;;;;;;4.82;3.97;;;;;;;26.13;39.44;93065.31;5031247;28;20706;-55
2023/03/27 08:20:34;;;;;;;5.95;3.88;;;;;;;25.99;39.12;93055.47;5031540;28;20217;-55
2023/03/27 08:23:03;;;;;;;10.05;4.57;;;;;;;25.90;39.00;93045.81;5031440;28;20200;-54
2023/03/27 08:25:31;;;;;;;6.03;4.20;;;;;;;25.78;39.10;93046.19;5031306;28;20805;-55
2023/03/27 08:27:58;;;;;;;5.53;3.63;;;;;;;25.69;39.54;93043.31;5031309;28;20187;-54
2023/03/27 08:30:26;;;;;;;5.43;4.03;;;;;;;25.62;39.41;93050.69;5031659;28;20215;-54
2023/03/27 08:32:53;;;;;;;3.90;3.53;;;;;;;25.56;39.38;93045.75;5026301;28;20242;-52
2023/03/27 08:35:20;;;;;;;6.47;3.92;;;;;;;25.49;39.51;93025.91;5011410;28;20275;-58
2023/03/27 08:37:47;;;;;;;5.30;3.58;;;;;;;25.35;39.31;93040.63;5011555;28;20731;-56
2023/03/27 08:40:24;;;;;;;5.72;3.55;;;;;;;25.24;39.25;93045.13;5011032;28;20643;-54
2023/03/27 08:42:56;;;;;;;4.47;3.55;;;;;;;25.13;39.22;93053.28;5010937;28;20192;-54
2023/03/27 08:45:26;;;;;;;5.63;3.92;;;;;;;25.03;39.77;93083.63;5011268;28;20196;-53
2023/03/27 08:48:00;;;;;;;5.72;3.65;;;;;;;24.80;39.24;93086.03;5011349;28;20192;-55
2023/03/27 08:50:36;;;;;;;4.30;3.50;;;;;;;24.74;39.26;93065.16;5011134;28;20576;-54
2023/03/27 08:53:07;;;;;;;4.05;3.65;;;;;;;24.61;38.89;93062.28;5010861;28;20228;-54
2023/03/27 08:55:41;;;;;;;4.05;3.50;;;;;;;24.47;39.14;92992.25;5010836;28;20199;-53
2023/03/27 08:58:17;;;;;;;4.15;3.35;;;;;;;24.38;38.95;93001.69;5011045;28;20266;-55
2023/03/27 09:00:45;;;;;;;3.78;3.28;;;;;;;24.35;38.81;92964.81;5011200;28;20223;-57
2023/03/27 09:03:18;;;;;;;5.22;3.33;;;;;;;24.33;38.81;92936.34;5011006;28;20258;-55
2023/03/27 09:05:51;;;;;;;4.28;3.25;;;;;;;24.42;38.74;92947.84;5011288;28;20192;-55
2023/03/27 09:08:32;;;;;;;7.53;3.47;;;;;;;24.52;38.77;92928.75;5010382;28;20632;-54
2023/03/27 09:11:08;;;;;;;4.18;2.88;;;;;;;24.61;39.11;92952.50;5010697;28;20230;-55
2023/03/27 09:13:42;;;;;;;5.10;3.50;;;;;;;24.66;38.89;92929.75;5011078;28;20184;-54
2023/03/27 09:16:15;;;;;;;3.15;2.85;;;;;;;24.68;38.96;92945.16;5010958;28;20196;-54
2023/03/27 09:18:51;;;;;;;3.38;2.88;;;;;;;24.68;39.02;92940.72;5011189;28;20211;-54
2023/03/27 09:21:20;;;;;;;3.45;3.15;;;;;;;24.64;39.29;92944.91;5010894;28;20203;-54
2023/03/27 09:23:49;;;;;;;4.20;3.03;;;;;;;24.65;39.52;93001.34;5010362;28;20200;-55
2023/03/27 09:26:20;;;;;;;3.75;2.97;;;;;;;24.60;39.41;93005.81;5010358;28;20196;-54
2023/03/27 09:28:50;;;;;;;5.70;3.15;;;;;;;24.47;39.32;93007.94;5010612;28;20192;-53
2023/03/27 09:31:27;;;;;;;5.35;3.00;;;;;;;24.29;39.07;92998.03;5010138;28;20231;-55
2023/03/27 09:33:55;;;;;;;4.63;2.83;;;;;;;24.14;38.87;92987.59;5010432;28;20196;-53
2023/03/27 09:36:24;;;;;;;2.88;2.63;;;;;;;23.95;38.84;92987.34;5010297;28;20726;-52
2023/03/27 09:38:53;;;;;;;3.25;2.53;;;;;;;23.82;39.10;92966.97;5010221;28;20232;-53
2023/03/27 09:41:25;;;;;;;4.72;2.30;;;;;;;23.64;39.27;92974.25;5010125;28;20664;-55
2023/03/27 09:43:58;;;;;;;5.07;2.80;;;;;;;23.48;39.21;92985.72;5010184;28;20660;-56
2023/03/27 09:46:27;;;;;;;3.13;2.50;;;;;;;23.37;39.37;92986.75;5010534;28;20197;-55
2023/03/27 09:48:59;;;;;;;3.15;2.70;;;;;;;23.28;39.40;92981.25;5009822;28;20231;-53
2023/03/27 09:51:38;;;;;;;3.40;2.30;;;;;;;23.11;39.57;92960.63;5010382;28;20668;-53
2023/03/27 09:54:06;;;;;;;4.43;2.78;;;;;;;23.14;39.61;92969.72;5009552;28;20231;-54
2023/03/27 09:56:38;;;;;;;4.38;2.50;;;;;;;23.07;39.85;92964.00;5010153;28;20262;-54
2023/03/27 09:59:12;;;;;;;2.78;2.22;;;;;;;22.96;39.55;92965.78;5010048;28;20619;-54
2023/03/27 10:01:47;;;;;;;3.80;2.50;;;;;;;22.82;40.19;92975.88;5010051;28;20184;-54
2023/03/27 10:04:16;;;;;;;4.35;2.65;;;;;;;22.69;40.09;92979.72;5010121;28;20202;-53
2023/03/27 10:06:46;;;;;;;2.90;2.70;;;;;;;22.61;40.02;92993.25;5009849;28;20224;-54
2023/03/27 10:09:22;;;;;;;4.45;2.20;;;;;;;22.53;39.84;92991.09;5009757;28;20184;-52
2023/03/27 10:11:51;;;;;;;3.00;2.50;;;;;;;22.42;40.40;92997.31;5009227;28;20259;-52
2023/03/27 10:14:20;;;;;;;3.00;2.80;;;;;;;22.30;40.38;93002.72;5009828;28;20331;-53
2023/03/27 10:16:47;;;;;;;3.88;2.97;;;;;;;22.20;40.65;93006.03;5009563;28;20188;-53
2023/03/27 10:19:26;;;;;;;3.65;2.50;;;;;;;22.10;40.51;93005.94;5009641;28;20198;-52
2023/03/27 10:21:55;;;;;;;2.47;2.28;;;;;;;21.98;40.64;92997.53;5009439;28;20195;-52
2023/03/27 10:24:28;;;;;;;4.53;2.53;;;;;;;21.87;41.00;93001.84;5009499;28;20279;-54
2023/03/27 10:26:58;;;;;;;4.68;2.85;;;;;;;21.77;41.02;92980.97;5009489;28;20873;-55
2023/03/27 10:29:27;;;;;;;2.50;2.30;;;;;;;21.73;40.88;92980.69;5009573;28;20676;-54
2023/03/27 10:31:56;;;;;;;3.10;2.80;;;;;;;21.71;41.05;92968.94;5009672;28;20294;-56
2023/03/27 10:34:32;;;;;;;4.53;2.60;;;;;;;21.72;41.07;92994.72;5009719;28;20203;-53
2023/03/27 10:37:02;;;;;;;4.55;2.53;;;;;;;21.77;41.23;92967.97;5009433;28;20196;-53
2023/03/27 10:39:32;;;;;;;6.00;2.50;;;;;;;21.83;41.20;92958.38;5009241;28;20656;-54
2023/03/27 10:42:07;;;;;;;2.92;2.22;;;;;;;21.73;41.20;92928.66;5009332;28;20184;-53
2023/03/27 10:44:37;;;;;;;2.58;2.38;;;;;;;21.94;41.12;92947.78;5009881;28;20282;-53
2023/03/27 10:47:05;;;;;;;2.97;2.63;;;;;;;21.96;41.20;92931.91;5009471;28;20200;-53
2023/03/27 10:49:41;;;;;;;2.88;2.60;;;;;;;21.97;41.32;92936.06;5009682;28;20676;-55
2023/03/27 10:52:18;;;;;;;3.22;2.60;;;;;;;21.95;41.21;92917.34;5009081;28;20215;-56
2023/03/27 10:54:50;;;;;;;2.88;2.20;;;;;;;21.96;41.20;92900.69;5009606;28;20199;-54
2023/03/27 10:57:21;;;;;;;2.50;2.30;;;;;;;21.99;41.27;92897.56;5009796;28;20250;-59
2023/03/27 10:59:54;;;;;;;4.78;2.50;;;;;;;22.02;41.18;92897.88;5009701;28;20656;-55
2023/03/27 11:02:28;;;;;;;2.63;2.33;;;;;;;22.10;41.45;92909.59;5009456;28;20191;-54
2023/03/27 11:04:59;;;;;;;3.05;2.63;;;;;;;22.15;41.31;92911.47;5009717;28;20673;-54
2023/03/27 11:07:32;;;;;;;4.28;2.60;;;;;;;22.21;41.20;92913.09;5011968;28;20188;-53
2023/03/27 11:10:04;;;;;;;2.78;2.45;;;;;;;22.23;41.37;92898.75;5013353;28;20196;-53
2023/03/27 11:12:36;;;;;;;3.20;2.90;;;;;;;22.25;41.39;92911.53;5012899;28;20885;-54
2023/03/27 11:15:12;;;;;;;3.03;2.72;;;;;;;22.27;41.48;92927.69;5013688;28;20192;-53
2023/03/27 11:17:44;;;;;;;3.25;2.58;;;;;;;22.24;41.52;92929.00;5012875;28;20200;-54
2023/03/27 11:20:20;;;;;;;2.70;2.50;;;;;;;22.24;41.75;92956.84;5013361;28;20204;-56
2023/03/27 11:22:54;;;;;;;3.95;2.40;;;;;;;22.19;41.87;93006.28;5013148;28;20694;-53
2023/03/27 11:25:28;;;;;;;2.58;2.38;;;;;;;22.08;42.05;92992.38;5012946;28;20594;-57
2023/03/27 11:28:05;;;;;;;2.75;2.55;;;;;;;21.93;42.32;93003.47;5013061;28;20672;-53
2023/03/27 11:30:43;;;;;;;3.50;2.50;;;;;;;21.74;42.57;92978.84;5013057;28;20191;-56
2023/03/27 11:33:25;;;;;;;2.97;2.45;;;;;;;21.62;42.39;93004.25;5013204;28;20220;-54
2023/03/27 11:35:58;;;;;;;5.28;2.38;;;;;;;21.49;42.49;93010.63;5012769;28;20691;-52
2023/03/27 11:38:31;;;;;;;3.28;2.97;;;;;;;21.36;42.51;93005.81;5012987;28;20238;-52
2023/03/27 11:40:58;;;;;;;4.30;2.90;;;;;;;21.32;42.56;93009.94;5012547;28;20526;-52
2023/03/27 11:43:26;;;;;;;3.15;2.85;;;;;;;21.23;42.78;93017.38;5012533;28;20184;-53
2023/03/27 11:46:07;;;;;;;3.67;2.60;;;;;;;21.12;42.91;93033.91;5012644;28;20207;-52